createdAt,value
2022-09-18T00:01:14.619Z,1.23
2022-09-18T00:03:42.103Z,1.92
2022-09-18T00:06:11.276Z,1.80
2022-09-18T00:08:38.625Z,1.67
2022-09-18T00:11:09.533Z,1.35
2022-09-18T00:13:37.906Z,1.80
2022-09-18T00:16:06.282Z,1.98
2022-09-18T00:18:32.825Z,2.22
2022-09-18T00:21:06.011Z,1.30
2022-09-18T00:23:32.994Z,2.10
2022-09-18T00:25:59.436Z,1.70
2022-09-18T00:28:25.808Z,1.50
2022-09-18T00:30:53.811Z,1.70
2022-09-18T00:33:20.691Z,1.60
2022-09-18T00:35:47.341Z,1.58
2022-09-18T00:38:13.746Z,1.80
2022-09-18T00:40:40.199Z,1.70
2022-09-18T00:43:24.609Z,1.67
2022-09-18T00:46:20.196Z,1.88
2022-09-18T00:48:59.042Z,1.73
2022-09-18T00:51:26.052Z,1.75
2022-09-18T00:54:15.235Z,1.80
2022-09-18T00:56:42.389Z,1.83
2022-09-18T00:59:12.543Z,1.67
2022-09-18T01:01:38.957Z,1.70
2022-09-18T01:04:10.981Z,2.10
2022-09-18T01:06:50.481Z,1.30
2022-09-18T01:09:29.817Z,1.48
2022-09-18T01:12:34.038Z,1.80
2022-09-18T01:15:14.067Z,1.60
2022-09-18T01:18:01.613Z,1.40
2022-09-18T01:20:52.551Z,1.67
2022-09-18T01:23:42.318Z,1.98
2022-09-18T01:26:33.825Z,1.27
2022-09-18T01:29:28.218Z,1.55
2022-09-18T01:31:59.074Z,1.55
2022-09-18T01:34:44.546Z,1.77
2022-09-18T01:37:18.698Z,2.27
2022-09-18T01:40:01.570Z,1.55
2022-09-18T01:42:31.062Z,1.55
2022-09-18T01:45:01.961Z,1.83
2022-09-18T01:47:35.686Z,1.90
2022-09-18T01:50:03.063Z,1.63
2022-09-18T01:52:35.342Z,2.00
2022-09-18T01:55:03.787Z,2.10
2022-09-18T01:57:47.002Z,2.05
2022-09-18T02:00:14.486Z,2.03
2022-09-18T02:02:56.618Z,2.13
2022-09-18T02:05:44.142Z,1.90
2022-09-18T02:08:32.094Z,1.52
2022-09-18T02:11:02.877Z,1.67
2022-09-18T02:13:37.103Z,2.25
2022-09-18T02:16:10.587Z,2.05
2022-09-18T02:18:46.345Z,2.17
2022-09-18T02:21:16.835Z,2.13
2022-09-18T02:23:44.425Z,1.92
2022-09-18T02:26:14.558Z,2.00
2022-09-18T02:28:43.312Z,2.00
2022-09-18T02:31:12.845Z,1.95
2022-09-18T02:33:39.465Z,1.52
2022-09-18T02:36:33.639Z,1.80
2022-09-18T02:39:25.055Z,1.25
2022-09-18T02:42:06.478Z,1.42
2022-09-18T02:44:50.616Z,2.22
2022-09-18T02:47:34.304Z,2.17
2022-09-18T02:50:15.814Z,1.70
2022-09-18T02:52:51.795Z,1.88
2022-09-18T02:58:22.401Z,1.63
2022-09-18T03:00:50.176Z,2.03
2022-09-18T03:03:18.026Z,1.70
2022-09-18T03:05:45.126Z,1.58
2022-09-18T03:08:12.304Z,2.30
2022-09-18T03:10:38.787Z,1.75
2022-09-18T03:13:05.266Z,1.73
2022-09-18T03:15:32.035Z,1.70
2022-09-18T03:17:58.424Z,1.75
2022-09-18T03:20:24.992Z,1.60
2022-09-18T03:22:51.365Z,1.58
2022-09-18T03:25:17.753Z,1.70
2022-09-18T03:27:44.156Z,1.33
2022-09-18T03:30:11.190Z,1.75
2022-09-18T03:32:37.571Z,1.75
2022-09-18T03:35:04.236Z,1.70
2022-09-18T03:37:30.649Z,1.70
2022-09-18T03:39:57.130Z,1.95
2022-09-18T03:42:23.543Z,1.42
2022-09-18T03:44:50.142Z,1.42
2022-09-18T03:47:16.534Z,1.52
2022-09-18T03:49:42.918Z,2.13
2022-09-18T03:52:09.299Z,1.92
2022-09-18T03:54:35.688Z,1.98
2022-09-18T03:57:02.215Z,1.50
2022-09-18T03:59:28.621Z,1.40
2022-09-18T04:01:55.140Z,1.35
2022-09-18T04:04:21.594Z,1.50
2022-09-18T04:06:47.975Z,1.48
2022-09-18T04:09:14.403Z,1.33
2022-09-18T04:11:40.818Z,1.73
2022-09-18T04:14:07.217Z,1.75
2022-09-18T04:16:33.920Z,1.58
2022-09-18T04:19:00.543Z,1.30
2022-09-18T04:21:26.933Z,1.30
2022-09-18T04:23:53.429Z,1.90
2022-09-18T04:26:19.933Z,1.63
2022-09-18T04:28:46.322Z,1.80
2022-09-18T04:31:13.025Z,1.45
2022-09-18T04:33:39.443Z,1.50
2022-09-18T04:36:06.062Z,1.60
2022-09-18T04:38:32.581Z,1.48
2022-09-18T04:41:00.937Z,2.20
2022-09-18T04:43:28.333Z,1.50
2022-09-18T04:45:55.528Z,1.60
2022-09-18T04:48:22.657Z,1.40
2022-09-18T04:50:49.657Z,1.70
2022-09-18T04:53:16.398Z,1.55
2022-09-18T04:55:44.576Z,1.90
2022-09-18T04:58:12.411Z,1.42
2022-09-18T05:00:39.219Z,1.83
2022-09-18T05:03:06.306Z,1.88
2022-09-18T05:05:32.789Z,1.80
2022-09-18T05:08:00.490Z,1.83
2022-09-18T05:10:27.998Z,1.50
2022-09-18T05:12:54.401Z,1.70
2022-09-18T05:15:21.725Z,1.50
2022-09-18T05:17:48.698Z,1.30
2022-09-18T05:20:15.496Z,2.00
2022-09-18T05:22:46.977Z,1.90
2022-09-18T05:25:13.380Z,1.92
2022-09-18T05:27:39.778Z,1.90
2022-09-18T05:30:07.022Z,1.63
2022-09-18T05:32:33.417Z,1.70
2022-09-18T05:34:59.794Z,1.85
2022-09-18T05:37:26.547Z,1.88
2022-09-18T05:39:53.033Z,2.13
2022-09-18T05:42:19.516Z,1.67
2022-09-18T05:44:45.967Z,2.00
2022-09-18T05:47:12.443Z,2.45
2022-09-18T05:49:38.845Z,2.00
2022-09-18T05:52:05.590Z,1.90
2022-09-18T05:54:32.241Z,1.75
2022-09-18T05:56:58.635Z,1.65
2022-09-18T05:59:25.425Z,1.73
2022-09-18T06:01:51.954Z,1.90
2022-09-18T06:04:18.439Z,1.95
2022-09-18T06:06:45.011Z,1.70
2022-09-18T06:09:11.510Z,1.48
2022-09-18T06:11:37.887Z,1.83
2022-09-18T06:14:04.415Z,1.77
2022-09-18T06:16:31.085Z,1.77
2022-09-18T06:18:57.575Z,1.92
2022-09-18T06:21:23.973Z,1.90
2022-09-18T06:23:50.355Z,1.40
2022-09-18T06:26:16.781Z,1.85
2022-09-18T06:28:43.184Z,1.70
2022-09-18T06:31:10.825Z,1.45
2022-09-18T06:33:37.356Z,1.40
2022-09-18T06:36:08.285Z,1.80
2022-09-18T06:38:34.790Z,1.55
2022-09-18T06:41:01.283Z,1.65
2022-09-18T06:43:28.880Z,1.33
2022-09-18T06:45:56.645Z,1.35
2022-09-18T06:48:24.638Z,1.48
2022-09-18T06:50:52.970Z,1.50
2022-09-18T06:53:19.407Z,1.65
2022-09-18T06:55:46.142Z,1.38
2022-09-18T06:58:12.522Z,1.80
2022-09-18T07:00:38.977Z,1.40
2022-09-18T07:03:05.428Z,1.60
2022-09-18T07:05:33.090Z,1.83
2022-09-18T07:08:00.135Z,1.48
2022-09-18T07:10:26.585Z,1.45
2022-09-18T07:12:57.320Z,1.30
2022-09-18T07:15:24.196Z,1.42
2022-09-18T07:17:51.988Z,1.20
2022-09-18T07:20:19.853Z,1.20
2022-09-18T07:22:53.960Z,1.52
2022-09-18T07:25:20.566Z,1.30
2022-09-18T07:27:47.304Z,1.10
2022-09-18T07:30:14.274Z,1.55
2022-09-18T07:32:40.719Z,1.50
2022-09-18T07:35:07.806Z,1.60
2022-09-18T07:37:34.603Z,1.27
2022-09-18T07:40:01.127Z,1.85
2022-09-18T07:42:28.129Z,1.30
2022-09-18T07:44:54.649Z,1.70
2022-09-18T07:47:21.307Z,1.40
2022-09-18T07:49:47.729Z,1.48
2022-09-18T07:52:14.435Z,1.40
2022-09-18T07:54:40.842Z,1.40
2022-09-18T07:57:07.213Z,0.80
2022-09-18T07:59:33.614Z,1.20
2022-09-18T08:02:00.196Z,1.40
2022-09-18T08:04:26.725Z,1.33
2022-09-18T08:06:55.012Z,1.20
2022-09-18T08:09:22.231Z,1.02
2022-09-18T08:11:52.089Z,1.48
2022-09-18T08:14:18.466Z,1.58
2022-09-18T08:16:45.095Z,1.98
2022-09-18T08:19:12.882Z,1.27
2022-09-18T08:21:39.293Z,1.42
2022-09-18T08:24:06.041Z,1.20
2022-09-18T08:26:35.831Z,1.20
2022-09-18T08:29:02.241Z,1.60
2022-09-18T08:31:28.647Z,1.40
2022-09-18T08:33:55.200Z,1.05
2022-09-18T08:36:21.598Z,1.00
2022-09-18T08:38:48.028Z,1.25
2022-09-18T08:41:23.282Z,1.50
2022-09-18T08:44:25.555Z,1.60
2022-09-18T08:47:01.042Z,1.50
2022-09-18T08:49:32.527Z,1.33
2022-09-18T08:52:03.744Z,1.08
2022-09-18T08:54:47.574Z,1.48
2022-09-18T08:57:29.244Z,1.50
2022-09-18T09:00:13.088Z,1.33
2022-09-18T09:02:48.071Z,1.27
2022-09-18T09:05:18.317Z,1.23
2022-09-18T09:07:47.368Z,1.20
2022-09-18T09:10:22.556Z,1.30
2022-09-18T09:13:07.627Z,1.20
2022-09-18T09:15:47.428Z,1.20
2022-09-18T09:18:19.472Z,1.40
2022-09-18T09:21:20.870Z,1.25
2022-09-18T09:24:21.160Z,1.38
2022-09-18T09:26:53.916Z,1.08
2022-09-18T09:29:29.187Z,1.13
2022-09-18T09:32:06.436Z,1.23
2022-09-18T09:34:46.938Z,1.23
2022-09-18T09:37:23.759Z,1.20
2022-09-18T09:40:08.361Z,1.52
2022-09-18T09:42:43.526Z,1.10
2022-09-18T09:45:15.640Z,1.47
2022-09-18T09:47:52.225Z,1.15
2022-09-18T09:50:40.213Z,1.10
2022-09-18T09:53:11.469Z,1.10
2022-09-18T09:55:48.933Z,1.08
2022-09-18T09:58:39.800Z,1.30
2022-09-18T10:01:31.528Z,1.13
2022-09-18T10:04:14.607Z,1.25
2022-09-18T10:06:40.938Z,1.08
2022-09-18T10:09:35.190Z,1.20
2022-09-18T10:12:35.539Z,1.02
2022-09-18T10:15:25.164Z,1.30
2022-09-18T10:17:55.903Z,1.00
2022-09-18T10:20:28.016Z,1.20
2022-09-18T10:22:58.513Z,1.15
2022-09-18T10:25:55.678Z,0.90
2022-09-18T10:28:25.595Z,1.55
2022-09-18T10:31:01.724Z,1.02
2022-09-18T10:33:37.626Z,1.42
2022-09-18T10:36:16.606Z,1.15
2022-09-18T10:38:43.409Z,1.25
2022-09-18T10:41:25.855Z,0.98
2022-09-18T10:44:17.492Z,0.95
2022-09-18T10:47:05.997Z,1.00
2022-09-18T10:49:37.920Z,1.08
2022-09-18T10:52:37.878Z,0.90
2022-09-18T10:55:09.946Z,0.80
2022-09-18T10:58:01.536Z,1.20
2022-09-18T11:00:35.153Z,0.90
2022-09-18T11:03:34.803Z,0.80
2022-09-18T11:06:04.494Z,1.05
2022-09-18T11:08:35.302Z,1.17
2022-09-18T11:11:09.202Z,1.02
2022-09-18T11:13:56.497Z,0.95
2022-09-18T11:16:44.350Z,1.20
2022-09-18T11:19:11.069Z,0.98
2022-09-18T11:21:50.281Z,0.77
2022-09-18T11:24:21.649Z,0.90
2022-09-18T11:26:57.215Z,0.80
2022-09-18T11:29:30.600Z,0.80
2022-09-18T11:32:31.188Z,1.00
2022-09-18T11:35:01.836Z,0.85
2022-09-18T11:37:50.017Z,0.77
2022-09-18T11:40:28.011Z,0.82
2022-09-18T11:42:55.887Z,1.00
2022-09-18T11:45:31.659Z,0.90
2022-09-18T11:48:18.159Z,0.77
2022-09-18T11:50:45.745Z,0.95
2022-09-18T11:53:21.805Z,0.85
2022-09-18T11:55:56.594Z,1.00
2022-09-18T11:58:25.762Z,0.77
2022-09-18T12:01:29.915Z,0.90
2022-09-18T12:04:07.661Z,1.13
2022-09-18T12:06:51.168Z,0.73
2022-09-18T12:09:31.439Z,0.90
2022-09-18T12:12:11.591Z,0.80
2022-09-18T12:14:42.922Z,0.90
2022-09-18T12:17:22.703Z,0.70
2022-09-18T12:19:54.887Z,0.90
2022-09-18T12:22:34.081Z,1.10
2022-09-18T12:25:00.539Z,0.70
2022-09-18T12:27:41.514Z,0.98
2022-09-18T12:30:11.380Z,0.88
2022-09-18T12:32:51.845Z,0.90
2022-09-18T12:35:41.542Z,1.10
2022-09-18T12:38:26.177Z,0.70
2022-09-18T12:41:15.267Z,0.90
2022-09-18T12:43:48.105Z,0.90
2022-09-18T12:46:35.548Z,1.00
2022-09-18T12:49:40.658Z,1.10
2022-09-18T12:52:23.832Z,0.82
2022-09-18T12:55:18.173Z,0.90
2022-09-18T12:58:32.153Z,0.70
2022-09-18T13:01:03.489Z,0.73
2022-09-18T13:03:34.495Z,1.00
2022-09-18T13:06:20.383Z,0.70
2022-09-18T13:08:56.238Z,0.88
2022-09-18T13:14:06.127Z,1.00
2022-09-18T13:16:50.125Z,0.90
2022-09-18T13:19:43.978Z,0.70
2022-09-18T13:22:15.876Z,1.23
2022-09-18T13:24:45.686Z,1.02
2022-09-18T13:27:17.664Z,1.05
2022-09-18T13:29:53.351Z,0.95
2022-09-18T13:32:41.073Z,1.10
2022-09-18T13:35:21.110Z,0.93
2022-09-18T13:37:48.972Z,0.98
2022-09-18T13:40:27.629Z,1.02
2022-09-18T13:42:54.174Z,1.13
2022-09-18T13:45:24.346Z,0.90
2022-09-18T13:47:56.646Z,1.13
2022-09-18T13:50:23.044Z,1.35
2022-09-18T13:52:57.341Z,0.90
2022-09-18T13:55:25.361Z,1.17
2022-09-18T13:57:52.505Z,1.10
2022-09-18T14:00:18.897Z,1.20
2022-09-18T14:02:45.934Z,1.15
2022-09-18T14:05:34.410Z,1.17
2022-09-18T14:08:09.974Z,1.00
2022-09-18T14:11:05.368Z,1.08
2022-09-18T14:13:39.888Z,1.08
2022-09-18T14:16:22.362Z,1.25
2022-09-18T14:18:48.935Z,1.30
2022-09-18T14:21:20.783Z,1.40
2022-09-18T14:23:47.166Z,1.20
2022-09-18T14:26:28.913Z,1.17
2022-09-18T14:29:10.571Z,1.42
2022-09-18T14:31:47.046Z,0.98
2022-09-18T14:34:29.139Z,1.63
2022-09-18T14:37:01.678Z,1.10
2022-09-18T14:39:31.680Z,1.40
2022-09-18T14:42:15.135Z,1.40
2022-09-18T14:44:49.581Z,1.30
2022-09-18T14:47:25.922Z,1.27
2022-09-18T14:49:52.485Z,1.33
2022-09-18T14:52:23.040Z,1.58
2022-09-18T14:54:51.713Z,1.15
2022-09-18T14:57:21.978Z,1.30
2022-09-18T14:59:54.272Z,1.10
2022-09-18T15:02:29.100Z,1.20
2022-09-18T15:04:56.139Z,1.45
2022-09-18T15:07:23.393Z,1.35
2022-09-18T15:09:54.181Z,1.60
2022-09-18T15:12:24.477Z,1.55
2022-09-18T15:14:52.220Z,1.48
2022-09-18T15:17:21.917Z,1.13
2022-09-18T15:19:57.397Z,1.13
2022-09-18T15:22:24.342Z,1.58
2022-09-18T15:24:51.074Z,1.38
2022-09-18T15:27:18.562Z,1.10
2022-09-18T15:29:55.673Z,1.38
2022-09-18T15:32:30.506Z,1.08
2022-09-18T15:34:58.373Z,1.20
2022-09-18T15:37:26.437Z,1.10
2022-09-18T15:40:20.915Z,1.25
2022-09-18T15:42:58.541Z,0.98
2022-09-18T15:45:27.584Z,1.00
2022-09-18T15:47:54.696Z,1.40
2022-09-18T15:50:33.805Z,1.20
2022-09-18T15:53:22.253Z,1.20
2022-09-18T15:56:05.232Z,2.50
2022-09-18T15:58:34.001Z,1.38
2022-09-18T16:01:03.548Z,1.17
2022-09-18T16:03:31.618Z,1.52
2022-09-18T16:06:04.911Z,1.30
2022-09-18T16:08:34.112Z,1.42
2022-09-18T16:11:01.058Z,1.30
2022-09-18T16:13:35.679Z,1.25
2022-09-18T16:16:07.961Z,1.20
2022-09-18T16:18:47.300Z,1.33
2022-09-18T16:21:13.881Z,1.23
2022-09-18T16:23:48.528Z,1.50
2022-09-18T16:26:26.859Z,1.20
2022-09-18T16:28:56.305Z,1.50
2022-09-18T16:31:28.813Z,1.27
2022-09-18T16:34:01.340Z,1.35
2022-09-18T16:36:39.450Z,1.20
2022-09-18T16:39:08.754Z,1.10
2022-09-18T16:41:35.584Z,1.15
2022-09-18T16:44:04.315Z,1.33
2022-09-18T16:46:42.266Z,1.35
2022-09-18T16:49:11.572Z,1.08
2022-09-18T16:51:38.239Z,1.50
2022-09-18T16:54:05.105Z,0.98
2022-09-18T16:56:51.697Z,1.30
2022-09-18T16:59:20.504Z,1.27
2022-09-18T17:02:02.925Z,0.90
2022-09-18T17:04:30.062Z,1.58
2022-09-18T17:06:56.631Z,1.30
2022-09-18T17:09:23.974Z,1.52
2022-09-18T17:11:51.938Z,0.85
2022-09-18T17:14:18.902Z,1.08
2022-09-18T17:16:45.512Z,1.20
2022-09-18T17:19:12.605Z,1.30
2022-09-18T17:21:39.672Z,1.10
2022-09-18T17:24:06.310Z,1.00
2022-09-18T17:26:35.356Z,1.48
2022-09-18T17:29:02.106Z,1.27
2022-09-18T17:31:28.649Z,1.17
2022-09-18T17:33:55.764Z,1.17
2022-09-18T17:36:23.172Z,1.13
2022-09-18T17:38:49.568Z,1.23
2022-09-18T17:41:18.412Z,1.25
2022-09-18T17:43:45.158Z,1.27
2022-09-18T17:46:13.836Z,1.00
2022-09-18T17:48:40.302Z,1.20
2022-09-18T17:51:12.782Z,2.63
2022-09-18T17:53:40.915Z,1.75
2022-09-18T17:56:16.469Z,1.70
2022-09-18T17:58:44.839Z,1.80
2022-09-18T18:01:13.531Z,1.25
2022-09-18T18:03:41.046Z,1.80
2022-09-18T18:06:08.768Z,1.45
2022-09-18T18:08:35.177Z,1.63
2022-09-18T18:11:13.282Z,1.00
2022-09-18T18:13:41.556Z,1.23
2022-09-18T18:16:10.803Z,0.90
2022-09-18T18:18:38.363Z,1.15
2022-09-18T18:21:06.502Z,1.33
2022-09-18T18:23:33.589Z,1.42
2022-09-18T18:26:01.545Z,1.20
2022-09-18T18:28:32.076Z,1.08
2022-09-18T18:31:06.030Z,1.05
2022-09-18T18:33:36.561Z,1.50
2022-09-18T18:36:18.452Z,1.30
2022-09-18T18:38:48.058Z,1.30
2022-09-18T18:41:16.311Z,1.45
2022-09-18T18:43:44.060Z,1.60
2022-09-18T18:46:13.922Z,1.38
2022-09-18T18:48:42.018Z,1.20
2022-09-18T18:51:11.503Z,1.55
2022-09-18T18:53:38.554Z,1.38
2022-09-18T18:56:11.247Z,1.30
2022-09-18T18:58:38.238Z,1.10
2022-09-18T19:01:10.756Z,1.10
2022-09-18T19:03:42.940Z,0.98
2022-09-18T19:06:14.728Z,1.60
2022-09-18T19:08:42.049Z,1.02
2022-09-18T19:11:08.417Z,1.10
2022-09-18T19:13:45.051Z,1.30
2022-09-18T19:16:13.168Z,1.10
2022-09-18T19:18:40.065Z,1.33
2022-09-18T19:21:07.438Z,1.33
2022-09-18T19:23:34.887Z,1.05
2022-09-18T19:26:04.226Z,0.98
2022-09-18T19:28:31.163Z,1.42
2022-09-18T19:31:05.630Z,1.13
2022-09-18T19:33:33.088Z,1.30
2022-09-18T19:36:06.981Z,1.10
2022-09-18T19:38:36.931Z,1.40
2022-09-18T19:41:14.158Z,1.08
2022-09-18T19:43:40.891Z,1.13
2022-09-18T19:46:12.067Z,1.00
2022-09-18T19:48:39.153Z,0.95
2022-09-18T19:51:09.253Z,0.70
2022-09-18T19:53:38.801Z,1.30
2022-09-18T19:56:27.814Z,1.00
2022-09-18T19:58:59.178Z,1.00
2022-09-18T20:01:25.599Z,1.00
2022-09-18T20:03:54.092Z,1.40
2022-09-18T20:06:21.306Z,1.10
2022-09-18T20:08:47.728Z,1.00
2022-09-18T20:11:14.114Z,1.10
2022-09-18T20:13:40.830Z,0.98
2022-09-18T20:16:09.601Z,1.10
2022-09-18T20:18:36.934Z,1.05
2022-09-18T20:21:14.899Z,1.45
2022-09-18T20:23:41.932Z,1.42
2022-09-18T20:26:13.722Z,1.05
2022-09-18T20:28:40.249Z,1.33
2022-09-18T20:31:08.879Z,0.73
2022-09-18T20:33:35.661Z,1.45
2022-09-18T20:36:02.681Z,1.05
2022-09-18T20:38:34.242Z,1.02
2022-09-18T20:41:06.826Z,1.13
2022-09-18T20:43:35.770Z,1.20
2022-09-18T20:46:05.269Z,0.85
2022-09-18T20:48:33.559Z,1.08
2022-09-18T20:51:06.759Z,1.40
2022-09-18T20:53:33.323Z,1.30
2022-09-18T20:56:00.777Z,1.20
2022-09-18T20:58:27.177Z,1.38
2022-09-18T21:00:54.212Z,1.58
2022-09-18T21:03:21.065Z,1.15
2022-09-18T21:05:47.755Z,1.20
2022-09-18T21:08:14.163Z,1.23
2022-09-18T21:10:46.718Z,1.52
2022-09-18T21:13:14.977Z,1.85
2022-09-18T21:15:48.177Z,1.20
2022-09-18T21:18:15.597Z,1.50
2022-09-18T21:20:43.862Z,1.27
2022-09-18T21:23:30.300Z,1.35
2022-09-18T21:30:49.545Z,1.42
2022-09-18T21:33:16.054Z,1.30
2022-09-18T21:35:54.897Z,1.60
2022-09-18T21:38:21.346Z,1.48
2022-09-18T21:40:47.958Z,1.20
2022-09-18T21:43:15.566Z,1.48
2022-09-18T21:45:41.999Z,1.38
2022-09-18T21:48:09.067Z,1.50
2022-09-18T21:50:36.507Z,1.20
2022-09-18T21:53:02.962Z,1.80
2022-09-18T21:55:33.679Z,1.88
2022-09-18T21:58:00.115Z,1.80
2022-09-18T22:00:26.480Z,1.60
2022-09-18T22:02:53.308Z,1.58
2022-09-18T22:05:19.809Z,1.55
2022-09-18T22:07:46.245Z,1.52
2022-09-18T22:10:13.235Z,1.33
2022-09-18T22:12:39.746Z,1.30
2022-09-18T22:15:06.691Z,1.10
2022-09-18T22:17:33.102Z,1.30
2022-09-18T22:19:59.505Z,0.93
2022-09-18T22:22:27.180Z,1.33
2022-09-18T22:24:53.612Z,1.20
2022-09-18T22:27:20.028Z,1.02
2022-09-18T22:29:46.483Z,1.08
2022-09-18T22:32:12.905Z,1.13
2022-09-18T22:34:41.309Z,1.10
2022-09-18T22:37:09.541Z,1.20
2022-09-18T22:39:35.930Z,1.27
2022-09-18T22:42:02.592Z,1.98
2022-09-18T22:44:28.990Z,2.00
2022-09-18T22:46:55.586Z,1.80
2022-09-18T22:49:23.643Z,2.25
2022-09-18T22:51:51.234Z,2.30
2022-09-18T22:54:23.552Z,2.20
2022-09-18T22:56:52.351Z,2.25
2022-09-18T22:59:21.230Z,2.30
2022-09-18T23:01:52.063Z,2.35
2022-09-18T23:04:20.574Z,2.90
2022-09-18T23:06:48.162Z,2.90
2022-09-18T23:09:15.533Z,2.67
2022-09-18T23:11:43.769Z,3.15
2022-09-18T23:14:14.449Z,2.53
2022-09-18T23:16:41.243Z,2.50
2022-09-18T23:19:13.053Z,2.30
2022-09-18T23:21:40.095Z,2.70
2022-09-18T23:24:09.230Z,2.55
2022-09-18T23:26:41.146Z,2.55
2022-09-18T23:29:10.785Z,2.60
2022-09-18T23:31:40.530Z,2.20
2022-09-18T23:34:11.729Z,2.80
2022-09-18T23:36:41.785Z,2.72
2022-09-18T23:39:12.946Z,3.10
2022-09-18T23:41:39.893Z,2.78
2022-09-18T23:44:08.783Z,2.35
2022-09-18T23:46:36.139Z,2.33
2022-09-18T23:49:02.712Z,2.85
2022-09-18T23:51:31.724Z,2.83
2022-09-18T23:54:00.144Z,2.78
2022-09-18T23:56:29.141Z,2.40
2022-09-18T23:58:58.412Z,2.17
